Time;durP1;ratioP1;P1;durP2;ratioP2;P2;SDS_P1;SDS_P2;PMS_P1;PMS_P2;Temp;Humidity;BMP_temperature;BMP_pressure;BME280_temperature;BME280_humidity;BME280_pressure;Samples;Min_cycle;Max_cycle;Signal;HPM_P1;HPM_P2
2023/03/24 00:00:38;;;;;;;;;;;11.80;89.00;;;;;;5061939;28;19944;-80
2023/03/24 00:03:04;;;;;;;;;;;11.80;88.90;;;;;;5060125;28;19917;-80
2023/03/24 00:05:29;;;;;;;;;;;11.70;88.90;;;;;;5067521;28;19975;-80
2023/03/24 00:07:55;;;;;;;;;;;11.80;88.90;;;;;;5057813;28;20298;-79
2023/03/24 00:10:21;;;;;;;;;;;11.70;88.90;;;;;;5051241;28;19913;-80
2023/03/24 00:12:47;;;;;;;;;;;11.70;89.20;;;;;;5061051;28;20393;-80
2023/03/24 00:15:17;;;;;;;;;;;11.80;89.10;;;;;;5054799;28;20337;-80
2023/03/24 00:17:44;;;;;;;;;;;11.80;88.70;;;;;;5053642;28;19917;-80
2023/03/24 00:20:15;;;;;;;;;;;11.80;89.00;;;;;;5054443;28;19932;-79
2023/03/24 00:22:42;;;;;;;;;;;11.80;89.20;;;;;;5065448;28;20378;-80
2023/03/24 00:25:10;;;;;;;;;;;11.80;89.10;;;;;;5060543;28;19920;-80
2023/03/24 00:27:37;;;;;;;;;;;11.80;89.10;;;;;;5066730;28;19923;-79
2023/03/24 00:30:07;;;;;;;;;;;11.70;89.40;;;;;;5051501;28;19913;-80
2023/03/24 00:32:33;;;;;;;;;;;11.80;89.40;;;;;;5051686;28;19916;-79
2023/03/24 00:34:59;;;;;;;;;;;11.70;89.30;;;;;;5051012;28;19920;-80
2023/03/24 00:37:24;;;;;;;;;;;11.70;89.40;;;;;;5061628;28;20350;-80
2023/03/24 00:39:50;;;;;;;;;;;11.80;89.40;;;;;;5057721;28;19952;-79
2023/03/24 00:42:16;;;;;;;;;;;11.80;89.20;;;;;;5055350;28;20045;-80
2023/03/24 00:44:43;;;;;;;;;;;11.80;89.20;;;;;;5050733;28;19913;-80
2023/03/24 00:47:09;;;;;;;;;;;11.70;89.30;;;;;;5043251;28;20300;-79
2023/03/24 00:49:41;;;;;;;;;;;11.70;89.40;;;;;;5055803;28;19916;-80
2023/03/24 00:52:20;;;;;;;;;;;11.80;89.30;;;;;;5060986;28;19912;-80
2023/03/24 00:54:47;;;;;;;;;;;11.80;89.20;;;;;;5049809;28;19935;-80
2023/03/24 00:57:13;;;;;;;;;;;11.90;89.00;;;;;;5045171;28;20074;-80
2023/03/24 00:59:41;;;;;;;;;;;11.80;89.40;;;;;;5079946;28;20386;-80
2023/03/24 01:02:10;;;;;;;;;;;11.90;89.30;;;;;;5055380;28;19920;-80
2023/03/24 01:04:39;;;;;;;;;;;11.80;89.30;;;;;;5075351;28;21775;-80
2023/03/24 01:07:06;;;;;;;;;;;11.80;89.40;;;;;;5053623;28;19917;-80
2023/03/24 01:09:35;;;;;;;;;;;11.80;89.50;;;;;;5060635;28;20342;-80
2023/03/24 01:12:01;;;;;;;;;;;11.80;89.60;;;;;;5058826;28;19901;-79
2023/03/24 01:14:26;;;;;;;;;;;11.80;89.90;;;;;;5053185;28;19937;-80
2023/03/24 01:16:52;;;;;;;;;;;11.90;89.70;;;;;;5058265;28;19975;-80
2023/03/24 01:19:17;;;;;;;;;;;11.90;89.70;;;;;;5045500;28;20007;-80
2023/03/24 01:21:43;;;;;;;;;;;12.00;89.30;;;;;;5053979;28;20298;-80
2023/03/24 01:24:08;;;;;;;;;;;11.90;89.40;;;;;;5054946;28;19943;-80
2023/03/24 01:26:34;;;;;;;;;;;11.90;89.50;;;;;;5055211;28;19917;-79
2023/03/24 01:28:59;;;;;;;;;;;11.90;89.80;;;;;;5062413;28;19980;-80
2023/03/24 01:31:25;;;;;;;;;;;11.90;89.80;;;;;;5069084;28;20346;-81
2023/03/24 01:33:50;;;;;;;;;;;12.00;89.80;;;;;;5056255;28;19925;-80
2023/03/24 01:36:15;;;;;;;;;;;12.00;89.60;;;;;;5058211;28;19913;-81
2023/03/24 01:38:41;;;;;;;;;;;11.90;89.60;;;;;;5048320;28;19921;-80
2023/03/24 01:41:06;;;;;;;;;;;11.80;90.00;;;;;;5059757;28;20362;-80
2023/03/24 01:43:33;;;;;;;;;;;11.80;90.20;;;;;;5050858;28;19921;-81
2023/03/24 01:46:01;;;;;;;;;;;11.90;90.30;;;;;;5053547;28;20400;-80
2023/03/24 01:48:30;;;;;;;;;;;11.90;90.50;;;;;;5057179;28;19913;-80
2023/03/24 01:51:07;;;;;;;;;;;11.90;90.30;;;;;;5047857;28;19999;-80
2023/03/24 01:53:35;;;;;;;;;;;11.90;90.40;;;;;;5056424;28;19924;-81
2023/03/24 01:56:01;;;;;;;;;;;11.80;90.50;;;;;;5102976;28;19913;-81
2023/03/24 01:58:28;;;;;;;;;;;12.00;90.40;;;;;;5048718;28;20439;-81
2023/03/24 02:00:53;;;;;;;;;;;12.00;90.20;;;;;;5077719;28;20310;-81
2023/03/24 02:03:21;;;;;;;;;;;12.00;90.20;;;;;;5051089;28;19919;-81
2023/03/24 02:05:48;;;;;;;;;;;11.80;90.60;;;;;;5053013;28;20348;-81
2023/03/24 02:08:17;;;;;;;;;;;11.90;90.40;;;;;;5052559;28;19934;-80
2023/03/24 02:10:42;;;;;;;;;;;11.80;90.70;;;;;;5049843;28;20013;-80
2023/03/24 02:13:09;;;;;;;;;;;12.00;90.30;;;;;;5049159;28;19916;-81
2023/03/24 02:15:37;;;;;;;;;;;11.90;90.30;;;;;;5048056;28;19931;-81
2023/03/24 02:18:09;;;;;;;;;;;12.00;90.20;;;;;;5044296;28;19925;-81
2023/03/24 02:20:56;;;;;;;;;;;12.10;90.10;;;;;;5051264;28;19921;-79
2023/03/24 02:23:28;;;;;;;;;;;12.10;89.80;;;;;;5054887;28;19966;-81
2023/03/24 02:25:56;;;;;;;;;;;12.00;89.80;;;;;;5054670;28;20012;-81
2023/03/24 02:28:42;;;;;;;;;;;11.90;90.10;;;;;;5046025;28;19996;-81
2023/03/24 02:31:14;;;;;;;;;;;11.90;90.10;;;;;;5056263;28;19912;-81
2023/03/24 02:33:55;;;;;;;;;;;11.80;90.30;;;;;;5049566;28;19923;-80
2023/03/24 02:36:36;;;;;;;;;;;12.00;90.00;;;;;;5054836;28;19940;-80
2023/03/24 02:39:27;;;;;;;;;;;11.90;90.40;;;;;;5041608;28;19913;-81
2023/03/24 02:42:11;;;;;;;;;;;12.00;90.50;;;;;;5054980;28;19948;-81
2023/03/24 02:44:55;;;;;;;;;;;11.90;90.40;;;;;;5039790;28;20031;-81
2023/03/24 02:47:29;;;;;;;;;;;11.90;90.60;;;;;;5075806;28;20544;-80
2023/03/24 02:49:58;;;;;;;;;;;12.00;90.70;;;;;;5046884;28;19995;-80
2023/03/24 02:52:44;;;;;;;;;;;12.10;90.60;;;;;;5045744;28;20415;-80
2023/03/24 02:55:20;;;;;;;;;;;12.00;90.70;;;;;;5051063;28;19955;-79
2023/03/24 02:57:50;;;;;;;;;;;12.00;90.60;;;;;;5068007;28;20397;-81
2023/03/24 03:00:25;;;;;;;;;;;12.10;90.60;;;;;;5047631;28;19921;-84
2023/03/24 03:02:56;;;;;;;;;;;12.10;90.40;;;;;;5049508;28;21616;-81
2023/03/24 03:05:34;;;;;;;;;;;12.10;90.50;;;;;;5098608;22;19962;-85
2023/03/24 03:08:12;;;;;;;;;;;12.20;90.40;;;;;;5071588;28;19966;-84
2023/03/24 03:10:46;;;;;;;;;;;12.10;90.30;;;;;;5089745;28;19920;-85
2023/03/24 03:13:14;;;;;;;;;;;12.10;90.40;;;;;;5071621;28;20416;-85
2023/03/24 03:15:43;;;;;;;;;;;12.10;90.30;;;;;;5056340;28;19912;-85
2023/03/24 03:18:14;;;;;;;;;;;12.10;90.30;;;;;;5073501;28;19912;-85
2023/03/24 03:20:49;;;;;;;;;;;12.20;90.10;;;;;;5055011;28;19924;-86
2023/03/24 03:23:15;;;;;;;;;;;12.10;90.30;;;;;;5049655;28;20384;-86
2023/03/24 03:25:49;;;;;;;;;;;12.20;90.20;;;;;;5078166;28;19935;-84
2023/03/24 03:28:28;;;;;;;;;;;12.20;89.90;;;;;;5081163;28;19955;-84
2023/03/24 03:30:56;;;;;;;;;;;12.20;90.00;;;;;;5048167;28;19931;-86
2023/03/24 03:33:54;;;;;;;;;;;12.20;89.90;;;;;;5065540;28;20011;-84
2023/03/24 03:36:19;;;;;;;;;;;12.20;89.70;;;;;;5041498;28;20341;-83
2023/03/24 03:38:48;;;;;;;;;;;12.20;89.80;;;;;;5066337;28;20007;-84
2023/03/24 03:41:15;;;;;;;;;;;12.30;89.60;;;;;;5068792;28;19920;-83
2023/03/24 03:43:41;;;;;;;;;;;12.30;89.30;;;;;;5072118;28;19923;-85
2023/03/24 03:46:06;;;;;;;;;;;12.30;89.50;;;;;;5059116;28;19916;-83
2023/03/24 03:48:32;;;;;;;;;;;12.30;89.50;;;;;;5053206;28;19970;-84
2023/03/24 03:50:58;;;;;;;;;;;12.40;89.20;;;;;;5067892;28;19935;-84
2023/03/24 03:53:29;;;;;;;;;;;12.50;89.00;;;;;;5053929;28;19916;-85
2023/03/24 03:55:55;;;;;;;;;;;12.40;88.90;;;;;;5075211;28;19924;-83
2023/03/24 03:58:21;;;;;;;;;;;12.40;89.20;;;;;;5068247;28;19912;-86
2023/03/24 04:00:47;;;;;;;;;;;12.40;89.20;;;;;;5072088;28;19917;-84
2023/03/24 04:03:25;;;;;;;;;;;12.50;88.90;;;;;;5058193;28;19916;-84
2023/03/24 04:06:09;;;;;;;;;;;12.50;88.90;;;;;;5074702;28;19917;-85
2023/03/24 04:08:44;;;;;;;;;;;12.60;89.00;;;;;;5074680;28;20310;-85
2023/03/24 04:11:24;;;;;;;;;;;12.60;89.30;;;;;;5067799;28;19912;-84
2023/03/24 04:13:56;;;;;;;;;;;12.40;89.90;;;;;;5089824;28;19916;-85
2023/03/24 04:16:24;;;;;;;;;;;12.30;90.50;;;;;;5070861;28;19919;-84
2023/03/24 04:18:50;;;;;;;;;;;12.20;90.80;;;;;;5073153;28;19950;-84
2023/03/24 04:21:27;;;;;;;;;;;12.20;91.10;;;;;;5078801;28;20361;-86
2023/03/24 04:24:02;;;;;;;;;;;12.20;91.20;;;;;;5065102;28;19919;-85
2023/03/24 04:26:53;;;;;;;;;;;12.20;91.50;;;;;;5065113;28;20683;-86
2023/03/24 04:29:24;;;;;;;;;;;12.10;91.90;;;;;;5074426;28;19923;-85
2023/03/24 04:31:52;;;;;;;;;;;12.10;92.10;;;;;;5062509;28;19912;-85
2023/03/24 04:34:19;;;;;;;;;;;12.10;92.30;;;;;;5077040;28;19920;-85
2023/03/24 04:36:53;;;;;;;;;;;12.10;92.50;;;;;;5074814;28;19924;-85
2023/03/24 04:39:26;;;;;;;;;;;12.10;92.50;;;;;;5054469;28;19952;-84
2023/03/24 04:41:58;;;;;;;;;;;12.10;92.50;;;;;;5056167;28;19985;-85
2023/03/24 04:44:24;;;;;;;;;;;12.10;92.60;;;;;;5055161;28;19912;-85
2023/03/24 04:46:52;;;;;;;;;;;12.10;92.50;;;;;;5052718;28;19922;-85
2023/03/24 04:49:23;;;;;;;;;;;12.00;92.60;;;;;;5064449;28;19912;-83
2023/03/24 04:51:50;;;;;;;;;;;12.10;92.10;;;;;;5078579;28;19920;-85
2023/03/24 04:54:16;;;;;;;;;;;12.00;92.10;;;;;;5071264;28;20347;-86
2023/03/24 04:56:47;;;;;;;;;;;12.10;92.20;;;;;;5077694;28;19927;-84
2023/03/24 04:59:14;;;;;;;;;;;12.00;92.00;;;;;;5065776;28;19917;-84
2023/03/24 05:01:39;;;;;;;;;;;12.00;91.80;;;;;;5070580;28;19919;-84
2023/03/24 05:04:05;;;;;;;;;;;12.00;91.80;;;;;;5068972;28;19916;-83
2023/03/24 05:06:32;;;;;;;;;;;12.10;91.60;;;;;;5053561;28;20010;-84
2023/03/24 05:08:58;;;;;;;;;;;12.10;91.40;;;;;;5074771;28;19913;-83
2023/03/24 05:11:24;;;;;;;;;;;12.00;91.40;;;;;;5065911;28;19986;-82
2023/03/24 05:13:49;;;;;;;;;;;12.00;91.40;;;;;;5051861;28;19923;-84
2023/03/24 05:16:15;;;;;;;;;;;11.90;91.40;;;;;;5063988;28;20402;-84
2023/03/24 05:18:40;;;;;;;;;;;12.00;91.30;;;;;;5069376;28;19956;-84
2023/03/24 05:21:06;;;;;;;;;;;12.00;91.10;;;;;;5053849;28;19952;-83
2023/03/24 05:23:32;;;;;;;;;;;12.00;90.90;;;;;;5070156;28;19932;-84
2023/03/24 05:25:57;;;;;;;;;;;12.00;90.90;;;;;;5088800;28;19961;-85
2023/03/24 05:28:23;;;;;;;;;;;12.00;90.80;;;;;;5061257;28;19916;-86
2023/03/24 05:30:48;;;;;;;;;;;12.00;90.80;;;;;;5063029;28;20353;-84
2023/03/24 05:33:14;;;;;;;;;;;11.90;90.80;;;;;;5061366;28;19963;-83
2023/03/24 05:35:39;;;;;;;;;;;12.00;90.40;;;;;;5076609;28;19995;-86
2023/03/24 05:38:05;;;;;;;;;;;11.90;90.30;;;;;;5070423;28;19916;-85
2023/03/24 05:40:30;;;;;;;;;;;11.90;89.70;;;;;;5068488;28;19913;-85
2023/03/24 05:42:56;;;;;;;;;;;11.90;89.50;;;;;;5057796;28;19950;-84
2023/03/24 05:45:21;;;;;;;;;;;11.80;89.30;;;;;;5071357;28;19912;-83
2023/03/24 05:47:47;;;;;;;;;;;11.80;88.70;;;;;;5079356;28;19939;-84
2023/03/24 05:50:12;;;;;;;;;;;11.70;87.40;;;;;;5060106;28;19917;-84
2023/03/24 05:52:38;;;;;;;;;;;11.60;87.90;;;;;;5049601;28;20000;-85
2023/03/24 05:55:03;;;;;;;;;;;11.60;88.10;;;;;;5052229;28;19920;-84
2023/03/24 05:57:29;;;;;;;;;;;11.50;88.00;;;;;;5074586;28;19916;-84
2023/03/24 05:59:55;;;;;;;;;;;11.60;87.10;;;;;;5062952;28;19913;-85
2023/03/24 06:02:20;;;;;;;;;;;11.50;85.20;;;;;;5055796;28;20019;-84
2023/03/24 06:04:47;;;;;;;;;;;11.40;85.30;;;;;;5066895;28;20318;-87
2023/03/24 06:07:13;;;;;;;;;;;11.40;85.20;;;;;;5051473;28;19916;-90
2023/03/24 06:09:41;;;;;;;;;;;11.30;86.30;;;;;;5049205;28;19920;-88
2023/03/24 06:12:07;;;;;;;;;;;11.20;84.60;;;;;;5067301;28;19912;-89
2023/03/24 06:14:33;;;;;;;;;;;11.20;84.60;;;;;;5052847;28;19916;-84
2023/03/24 06:16:58;;;;;;;;;;;11.20;83.70;;;;;;5063491;28;19927;-87
2023/03/24 06:19:29;;;;;;;;;;;11.10;83.60;;;;;;5048942;28;20365;-86
2023/03/24 06:21:55;;;;;;;;;;;11.10;83.60;;;;;;5061425;28;19913;-88
2023/03/24 06:24:20;;;;;;;;;;;11.10;83.00;;;;;;5064200;28;19913;-86
2023/03/24 06:26:48;;;;;;;;;;;11.10;83.40;;;;;;5047933;28;20007;-87
2023/03/24 06:29:16;;;;;;;;;;;11.10;83.10;;;;;;5047823;28;20076;-88
2023/03/24 06:31:42;;;;;;;;;;;11.10;83.40;;;;;;5051118;28;19961;-89
2023/03/24 06:34:08;;;;;;;;;;;11.00;83.30;;;;;;5058583;28;19913;-88
2023/03/24 06:36:34;;;;;;;;;;;10.90;83.40;;;;;;5076172;28;20059;-89
2023/03/24 06:39:01;;;;;;;;;;;10.80;83.20;;;;;;5076659;28;19916;-88
2023/03/24 06:41:26;;;;;;;;;;;10.80;83.20;;;;;;5054235;28;20382;-89
2023/03/24 06:43:52;;;;;;;;;;;10.70;84.20;;;;;;5052745;28;19927;-86
2023/03/24 06:46:18;;;;;;;;;;;10.70;84.10;;;;;;5051689;28;19916;-89
2023/03/24 06:48:43;;;;;;;;;;;10.60;83.60;;;;;;5062550;28;19966;-89
2023/03/24 06:51:11;;;;;;;;;;;10.60;84.00;;;;;;5084036;28;19908;-89
2023/03/24 06:53:39;;;;;;;;;;;10.70;83.10;;;;;;5057882;28;20501;-91
2023/03/24 06:56:06;;;;;;;;;;;10.60;83.90;;;;;;5056497;28;19926;-90
2023/03/24 06:58:32;;;;;;;;;;;10.60;84.30;;;;;;5057201;28;19977;-90
2023/03/24 07:00:58;;;;;;;;;;;10.60;83.80;;;;;;5077544;28;19976;-90
2023/03/24 07:03:24;;;;;;;;;;;10.60;83.40;;;;;;5060273;28;19966;-90
2023/03/24 07:05:49;;;;;;;;;;;10.70;83.70;;;;;;5057655;28;19920;-89
2023/03/24 07:08:16;;;;;;;;;;;10.70;83.80;;;;;;5058629;28;19908;-90
2023/03/24 07:10:42;;;;;;;;;;;10.60;84.10;;;;;;5060899;28;19908;-88
2023/03/24 07:13:07;;;;;;;;;;;10.70;84.10;;;;;;5056083;28;20682;-88
2023/03/24 07:15:33;;;;;;;;;;;10.70;84.00;;;;;;5055302;28;20458;-88
2023/03/24 07:17:59;;;;;;;;;;;10.70;84.30;;;;;;5054782;28;19919;-88
2023/03/24 07:20:25;;;;;;;;;;;10.90;84.40;;;;;;5069003;28;19913;-88
2023/03/24 07:22:54;;;;;;;;;;;10.90;84.30;;;;;;5055724;28;19912;-88
2023/03/24 07:25:20;;;;;;;;;;;10.90;84.40;;;;;;5058316;28;19936;-88
2023/03/24 07:27:45;;;;;;;;;;;11.00;84.60;;;;;;5059504;28;19970;-89
2023/03/24 07:30:11;;;;;;;;;;;11.00;84.70;;;;;;5058353;28;20401;-88
2023/03/24 07:32:41;;;;;;;;;;;10.90;84.60;;;;;;5056934;28;20026;-87
2023/03/24 07:35:10;;;;;;;;;;;10.90;84.50;;;;;;5059171;28;19916;-90
2023/03/24 07:37:36;;;;;;;;;;;10.90;83.60;;;;;;5059237;28;19912;-94
2023/03/24 07:40:22;;;;;;;;;;;11.00;83.20;;;;;;5070842;28;19976;-91
2023/03/24 07:42:48;;;;;;;;;;;10.90;83.10;;;;;;5071867;28;19944;-90
2023/03/24 07:45:14;;;;;;;;;;;11.00;83.00;;;;;;5068751;28;19938;-91
2023/03/24 07:47:44;;;;;;;;;;;11.00;81.80;;;;;;5060845;28;19935;-90
2023/03/24 07:50:11;;;;;;;;;;;11.00;81.90;;;;;;5053491;28;20267;-91
2023/03/24 07:52:37;;;;;;;;;;;11.00;81.20;;;;;;5063774;28;19962;-89
2023/03/24 07:55:10;;;;;;;;;;;11.00;81.90;;;;;;5059299;28;19912;-91
2023/03/24 07:57:36;;;;;;;;;;;11.10;80.90;;;;;;5057644;28;20002;-89
2023/03/24 08:00:31;;;;;;;;;;;11.10;80.90;;;;;;5048325;28;19912;-91
2023/03/24 08:02:55;;;;;;;;;;;11.10;80.70;;;;;;5070710;28;19912;-90
2023/03/24 08:05:21;;;;;;;;;;;11.20;80.80;;;;;;5065479;28;19923;-89
2023/03/24 08:07:54;;;;;;;;;;;11.30;80.60;;;;;;5065400;28;20292;-88
2023/03/24 08:10:24;;;;;;;;;;;11.30;80.10;;;;;;5058060;28;19981;-89
2023/03/24 08:12:50;;;;;;;;;;;11.30;79.80;;;;;;5053826;28;20311;-87
2023/03/24 08:15:18;;;;;;;;;;;11.50;80.00;;;;;;5046523;28;19930;-85
2023/03/24 08:17:44;;;;;;;;;;;11.40;79.40;;;;;;5055675;28;19913;-91
2023/03/24 08:20:13;;;;;;;;;;;11.50;78.60;;;;;;5063671;28;19979;-88
2023/03/24 08:22:39;;;;;;;;;;;11.50;79.20;;;;;;5071517;28;19926;-90
2023/03/24 08:25:05;;;;;;;;;;;11.60;79.00;;;;;;5066363;22;19928;-77
2023/03/24 08:27:31;;;;;;;;;;;11.60;78.70;;;;;;5065493;28;19954;-79
2023/03/24 08:29:57;;;;;;;;;;;11.60;78.50;;;;;;5071066;28;20353;-77
2023/03/24 08:32:23;;;;;;;;;;;11.60;78.30;;;;;;5071562;28;19995;-77
2023/03/24 08:34:48;;;;;;;;;;;11.70;77.80;;;;;;5064060;28;19912;-76
2023/03/24 08:37:13;;;;;;;;;;;11.90;77.60;;;;;;5061922;28;19912;-77
2023/03/24 08:39:39;;;;;;;;;;;12.00;77.40;;;;;;5064272;28;19917;-77
2023/03/24 08:42:04;;;;;;;;;;;12.10;77.50;;;;;;5071716;28;20374;-77
2023/03/24 08:44:30;;;;;;;;;;;12.20;76.50;;;;;;5069632;28;19912;-77
2023/03/24 08:46:55;;;;;;;;;;;12.30;76.30;;;;;;5100513;28;20477;-77
2023/03/24 08:49:21;;;;;;;;;;;12.50;75.90;;;;;;5093480;28;19924;-77
2023/03/24 08:51:46;;;;;;;;;;;12.60;75.90;;;;;;5089749;28;20045;-77
2023/03/24 08:54:12;;;;;;;;;;;12.70;75.30;;;;;;5108841;28;20419;-78
2023/03/24 08:56:38;;;;;;;;;;;12.70;74.80;;;;;;5065891;28;19913;-77
2023/03/24 08:59:04;;;;;;;;;;;12.60;75.20;;;;;;5059824;28;19962;-78
2023/03/24 09:01:30;;;;;;;;;;;12.40;74.60;;;;;;5071204;28;19919;-79
2023/03/24 09:04:10;;;;;;;;;;;12.30;74.60;;;;;;5068503;27;19931;-79
2023/03/24 09:06:35;;;;;;;;;;;12.30;75.20;;;;;;5066277;28;20320;-78
2023/03/24 09:09:01;;;;;;;;;;;12.30;75.60;;;;;;5075108;22;20311;-81
2023/03/24 09:11:26;;;;;;;;;;;12.40;75.40;;;;;;5043320;28;20015;-82
2023/03/24 09:13:52;;;;;;;;;;;12.50;75.20;;;;;;5047809;28;19913;-81
2023/03/24 09:16:18;;;;;;;;;;;12.60;75.60;;;;;;5044934;28;20000;-81
2023/03/24 09:18:43;;;;;;;;;;;12.60;74.50;;;;;;5031212;28;19921;-81
2023/03/24 09:21:09;;;;;;;;;;;12.60;74.20;;;;;;5051430;28;19920;-81
2023/03/24 09:23:35;;;;;;;;;;;12.60;74.10;;;;;;5031354;28;19927;-81
2023/03/24 09:26:00;;;;;;;;;;;12.70;74.30;;;;;;5047808;28;20313;-81
2023/03/24 09:28:26;;;;;;;;;;;12.80;72.90;;;;;;5029055;28;19921;-81
2023/03/24 09:30:56;;;;;;;;;;;12.80;73.50;;;;;;5047056;28;19913;-81
2023/03/24 09:33:22;;;;;;;;;;;12.70;71.00;;;;;;5045307;28;19921;-80
2023/03/24 09:35:55;;;;;;;;;;;12.80;72.00;;;;;;5044604;28;20285;-81
2023/03/24 09:38:20;;;;;;;;;;;12.70;72.70;;;;;;5045063;28;19920;-81
2023/03/24 09:40:48;;;;;;;;;;;12.80;72.50;;;;;;5030980;28;20369;-79
2023/03/24 09:43:28;;;;;;;;;;;12.80;72.10;;;;;;5045800;28;19917;-79
2023/03/24 09:45:55;;;;;;;;;;;12.90;71.90;;;;;;5046249;28;19987;-79
2023/03/24 09:48:24;;;;;;;;;;;13.10;72.80;;;;;;5030380;28;19932;-79
2023/03/24 09:50:55;;;;;;;;;;;13.20;72.50;;;;;;5043511;28;19913;-80
2023/03/24 09:53:21;;;;;;;;;;;13.30;71.30;;;;;;5052069;28;19937;-80
2023/03/24 09:55:47;;;;;;;;;;;13.50;69.90;;;;;;5056920;28;19940;-81
2023/03/24 09:58:12;;;;;;;;;;;13.60;69.60;;;;;;5053730;28;19924;-79
2023/03/24 10:00:38;;;;;;;;;;;13.60;69.60;;;;;;5054583;28;19920;-81
2023/03/24 10:03:19;;;;;;;;;;;13.60;67.70;;;;;;5053066;28;19991;-81
2023/03/24 10:06:00;;;;;;;;;;;13.40;68.70;;;;;;5048583;28;19918;-81
2023/03/24 10:08:29;;;;;;;;;;;13.40;68.70;;;;;;5052121;28;19982;-79
2023/03/24 10:10:54;;;;;;;;;;;13.50;67.90;;;;;;5043501;28;20270;-79
2023/03/24 10:13:32;;;;;;;;;;;13.20;69.70;;;;;;5045075;28;19913;-81
2023/03/24 10:16:11;;;;;;;;;;;13.20;68.50;;;;;;5013236;28;20351;-80
2023/03/24 10:18:43;;;;;;;;;;;13.20;69.90;;;;;;5031576;28;19941;-81
2023/03/24 10:21:17;;;;;;;;;;;13.40;69.30;;;;;;5027094;28;19924;-82
2023/03/24 10:24:02;;;;;;;;;;;13.50;69.20;;;;;;5016905;28;19917;-81
2023/03/24 10:26:43;;;;;;;;;;;13.60;68.70;;;;;;5014462;28;19917;-82
2023/03/24 10:29:29;;;;;;;;;;;13.60;68.90;;;;;;5013651;28;19917;-82
2023/03/24 10:32:01;;;;;;;;;;;13.60;68.10;;;;;;5015245;28;20290;-81
2023/03/24 10:34:29;;;;;;;;;;;13.50;68.50;;;;;;5015898;28;20322;-80
2023/03/24 10:36:57;;;;;;;;;;;13.60;69.10;;;;;;5030996;28;19913;-80
2023/03/24 10:39:22;;;;;;;;;;;13.60;68.10;;;;;;5031672;28;20395;-80
2023/03/24 10:41:48;;;;;;;;;;;13.60;68.00;;;;;;5032423;28;19913;-80
2023/03/24 10:44:14;;;;;;;;;;;13.60;67.50;;;;;;5028642;28;19913;-81
2023/03/24 10:46:44;;;;;;;;;;;13.50;68.20;;;;;;5031330;28;19917;-82
2023/03/24 10:49:18;;;;;;;;;;;13.50;68.40;;;;;;5035074;28;20020;-82
2023/03/24 10:51:45;;;;;;;;;;;13.40;68.30;;;;;;5027413;28;19928;-80
2023/03/24 10:54:12;;;;;;;;;;;13.50;67.20;;;;;;5011783;28;19917;-80
2023/03/24 10:56:45;;;;;;;;;;;13.50;67.80;;;;;;5029742;28;19936;-80
2023/03/24 10:59:17;;;;;;;;;;;13.50;69.00;;;;;;5032885;28;20383;-80
2023/03/24 11:01:43;;;;;;;;;;;13.60;67.10;;;;;;5039534;28;19913;-80
2023/03/24 11:04:11;;;;;;;;;;;13.80;66.90;;;;;;5026907;28;20035;-80
2023/03/24 11:06:36;;;;;;;;;;;13.80;66.80;;;;;;5042046;28;19913;-80
2023/03/24 11:09:21;;;;;;;;;;;13.80;66.30;;;;;;5037575;28;19940;-80
2023/03/24 11:11:47;;;;;;;;;;;14.00;65.90;;;;;;5030003;28;20338;-81
2023/03/24 11:14:24;;;;;;;;;;;14.40;63.90;;;;;;5033353;28;19932;-81
2023/03/24 11:16:50;;;;;;;;;;;14.60;62.30;;;;;;5014635;28;20013;-81
2023/03/24 11:19:18;;;;;;;;;;;14.70;61.90;;;;;;5036161;28;19944;-80
2023/03/24 11:21:45;;;;;;;;;;;14.90;60.10;;;;;;5020230;28;19920;-81
2023/03/24 11:24:15;;;;;;;;;;;14.90;60.20;;;;;;5049110;28;19917;-80
2023/03/24 11:26:44;;;;;;;;;;;14.90;59.50;;;;;;5041288;28;19971;-80
2023/03/24 11:29:13;;;;;;;;;;;14.90;58.80;;;;;;5040176;28;19914;-80
2023/03/24 11:31:39;;;;;;;;;;;14.80;59.70;;;;;;5037937;28;19980;-81
2023/03/24 11:34:24;;;;;;;;;;;14.60;60.40;;;;;;5037449;28;19937;-81
2023/03/24 11:36:57;;;;;;;;;;;14.50;60.20;;;;;;5048171;28;19914;-82
2023/03/24 11:39:27;;;;;;;;;;;14.40;60.90;;;;;;5021786;28;19920;-81
2023/03/24 11:42:11;;;;;;;;;;;14.20;60.20;;;;;;5028039;28;19913;-82
2023/03/24 11:44:36;;;;;;;;;;;14.20;59.20;;;;;;5016700;28;20353;-81
2023/03/24 11:47:10;;;;;;;;;;;14.20;59.50;;;;;;5027289;28;19913;-81
2023/03/24 11:49:42;;;;;;;;;;;14.30;59.30;;;;;;5023564;28;19932;-81
2023/03/24 11:52:11;;;;;;;;;;;14.30;58.10;;;;;;5027809;28;19943;-82
2023/03/24 11:54:36;;;;;;;;;;;14.20;59.20;;;;;;5026705;28;19921;-82
2023/03/24 11:57:04;;;;;;;;;;;14.10;58.90;;;;;;5029971;28;20335;-82
2023/03/24 11:59:36;;;;;;;;;;;14.00;60.10;;;;;;5030761;28;19924;-83
2023/03/24 12:02:09;;;;;;;;;;;14.00;61.00;;;;;;5011203;28;21288;-82
2023/03/24 12:04:48;;;;;;;;;;;14.00;61.50;;;;;;5025325;28;19914;-82
2023/03/24 12:07:33;;;;;;;;;;;14.10;60.40;;;;;;5007724;28;19948;-81
2023/03/24 12:10:20;;;;;;;;;;;14.30;60.50;;;;;;5022748;28;19921;-81
2023/03/24 12:13:04;;;;;;;;;;;14.60;60.00;;;;;;5025704;28;19959;-81
2023/03/24 12:15:41;;;;;;;;;;;14.80;59.90;;;;;;5030824;28;19925;-82
2023/03/24 12:18:25;;;;;;;;;;;14.80;57.80;;;;;;5022132;28;20016;-81
2023/03/24 12:21:03;;;;;;;;;;;14.70;58.30;;;;;;5002923;28;19965;-83
2023/03/24 12:23:37;;;;;;;;;;;14.70;57.70;;;;;;5023432;28;20020;-82
2023/03/24 12:26:06;;;;;;;;;;;14.80;58.80;;;;;;5024228;28;20013;-81
2023/03/24 12:28:35;;;;;;;;;;;14.90;57.40;;;;;;5008857;28;20031;-80
2023/03/24 12:31:00;;;;;;;;;;;15.00;58.20;;;;;;5025931;28;20345;-80
2023/03/24 12:33:26;;;;;;;;;;;15.00;58.60;;;;;;5022264;28;19917;-81
2023/03/24 12:35:56;;;;;;;;;;;15.00;58.20;;;;;;5026778;28;20416;-81
2023/03/24 12:38:40;;;;;;;;;;;14.90;58.50;;;;;;5010304;28;19914;-80
2023/03/24 12:41:12;;;;;;;;;;;14.90;58.40;;;;;;5023328;28;19924;-81
2023/03/24 12:43:46;;;;;;;;;;;14.90;57.70;;;;;;5029654;28;19925;-82
2023/03/24 12:46:29;;;;;;;;;;;14.90;58.60;;;;;;5040929;28;19913;-79
2023/03/24 12:49:08;;;;;;;;;;;14.70;57.90;;;;;;5033944;28;19913;-81
2023/03/24 12:51:36;;;;;;;;;;;14.80;58.10;;;;;;5009102;28;19917;-81
2023/03/24 12:54:17;;;;;;;;;;;14.90;58.70;;;;;;5036079;28;19914;-80
2023/03/24 12:56:45;;;;;;;;;;;14.80;58.90;;;;;;5035374;28;20004;-80
2023/03/24 12:59:30;;;;;;;;;;;14.80;58.50;;;;;;5029842;28;19940;-81
2023/03/24 13:02:22;;;;;;;;;;;14.60;59.20;;;;;;5042600;28;19976;-85
2023/03/24 13:04:49;;;;;;;;;;;14.60;59.10;;;;;;5015477;28;19924;-80
2023/03/24 13:07:20;;;;;;;;;;;14.60;58.90;;;;;;5029030;28;19921;-82
2023/03/24 13:09:54;;;;;;;;;;;14.90;58.60;;;;;;5021726;28;19913;-83
2023/03/24 13:12:38;;;;;;;;;;;15.00;57.80;;;;;;5029582;28;19913;-86
2023/03/24 13:15:04;;;;;;;;;;;15.20;57.80;;;;;;5012459;28;20275;-86
2023/03/24 13:17:33;;;;;;;;;;;15.10;57.50;;;;;;5026457;28;19946;-83
2023/03/24 13:19:59;;;;;;;;;;;15.20;57.70;;;;;;5030322;28;19941;-82
2023/03/24 13:22:26;;;;;;;;;;;15.20;56.90;;;;;;5030485;28;19917;-83
2023/03/24 13:24:53;;;;;;;;;;;15.10;57.40;;;;;;5027874;28;19992;-83
2023/03/24 13:27:27;;;;;;;;;;;15.00;57.90;;;;;;5026566;28;20016;-83
2023/03/24 13:29:58;;;;;;;;;;;14.90;57.80;;;;;;5035500;28;19963;-82
2023/03/24 13:32:35;;;;;;;;;;;14.80;59.50;;;;;;5024525;28;19913;-82
2023/03/24 13:35:20;;;;;;;;;;;14.70;60.10;;;;;;5031952;28;19956;-81
2023/03/24 13:37:56;;;;;;;;;;;14.50;63.10;;;;;;5026081;28;19920;-82
2023/03/24 13:40:31;;;;;;;;;;;14.20;63.20;;;;;;5018214;28;19913;-80
2023/03/24 13:43:06;;;;;;;;;;;14.10;63.30;;;;;;5029433;28;19956;-80
2023/03/24 13:45:42;;;;;;;;;;;14.20;63.30;;;;;;5038474;28;19917;-81
2023/03/24 13:48:10;;;;;;;;;;;14.30;63.20;;;;;;5033841;28;19914;-81
2023/03/24 13:50:37;;;;;;;;;;;14.40;63.50;;;;;;5017525;28;20494;-81
2023/03/24 13:53:11;;;;;;;;;;;14.50;63.10;;;;;;5036310;28;19913;-80
2023/03/24 13:55:38;;;;;;;;;;;14.60;64.10;;;;;;5033430;28;19983;-81
2023/03/24 13:58:17;;;;;;;;;;;14.60;62.80;;;;;;5034522;28;19959;-82
2023/03/24 14:01:01;;;;;;;;;;;14.50;62.60;;;;;;5037865;28;19967;-83
2023/03/24 14:03:31;;;;;;;;;;;14.50;63.10;;;;;;5019795;28;19929;-83
2023/03/24 14:06:03;;;;;;;;;;;14.50;63.40;;;;;;5021571;28;19920;-83
2023/03/24 14:08:47;;;;;;;;;;;14.40;63.10;;;;;;5044730;28;19937;-85
2023/03/24 14:11:37;;;;;;;;;;;14.30;63.60;;;;;;5019424;28;20313;-86
2023/03/24 14:14:05;;;;;;;;;;;14.30;64.00;;;;;;5037987;28;19982;-85
2023/03/24 14:16:30;;;;;;;;;;;14.20;63.40;;;;;;5014197;28;19968;-86
2023/03/24 14:19:17;;;;;;;;;;;14.10;64.70;;;;;;5034330;28;19917;-83
2023/03/24 14:21:43;;;;;;;;;;;14.00;67.60;;;;;;5033232;28;20797;-84
2023/03/24 14:24:20;;;;;;;;;;;13.80;72.40;;;;;;5036961;28;19921;-82
2023/03/24 14:26:45;;;;;;;;;;;13.60;73.60;;;;;;5032654;28;19983;-82
2023/03/24 14:29:29;;;;;;;;;;;13.50;69.40;;;;;;5040663;28;19913;-82
2023/03/24 14:31:59;;;;;;;;;;;13.40;70.30;;;;;;5035364;28;19919;-82